Nanaimo, Canada
Current Conditions -  °F | °C
As of 9:00 PM on Thursday 18 Dec 2014 (Local Time) from CYCD Reporting Station
Light Rain Light Rain  
Wind Chill: 45°   Ceiling: 500
Heat Index: 48°   Visibility: 1.5mi
Dew Point: 46°   Wind: 8mph
Humidity: 93%   Direction: 120°ESE
Pressure: 29.63"   Gusts: NA
Location:  49.16°N, 123.94°W
Report Text: CYCD 190500Z 12007KT 070V150 1 1/2SM -RA BR BKN005 OVC014 09/08 A2963 RMK SF6SC2 CIG RAG LAST OBS/NEXT 191400 UTC SLP036
Loading
Personal Weather Stations






























Interactive Weather Map New forecast layout! Learn more

10-Day Weather Forecast

Advertisements
Track Severe Weather on mobile